createdAt,value
2023-04-19T04:02:34.404Z,4.60
2023-04-19T04:05:02.763Z,4.70
2023-04-19T04:07:31.047Z,4.90
2023-04-19T04:09:59.301Z,5.00
2023-04-19T04:12:27.549Z,5.10
2023-04-19T04:14:55.712Z,4.80
2023-04-19T04:17:24.579Z,5.00
2023-04-19T04:19:54.165Z,4.80
2023-04-19T04:22:22.421Z,5.00
2023-04-19T04:24:50.865Z,5.00
2023-04-19T04:27:21.362Z,5.00
2023-04-19T04:29:50.547Z,5.00
2023-04-19T04:32:22.936Z,5.10
2023-04-19T04:34:53.066Z,5.30
2023-04-19T04:37:21.231Z,5.40
2023-04-19T04:39:49.437Z,5.30
2023-04-19T04:42:17.718Z,5.20
2023-04-19T04:44:47.229Z,5.50
2023-04-19T04:47:15.519Z,5.70
2023-04-19T04:49:43.942Z,5.70
2023-04-19T04:52:13.512Z,5.80
2023-04-19T04:54:41.689Z,5.90
2023-04-19T04:57:10.164Z,5.80
2023-04-19T04:59:38.394Z,5.70
2023-04-19T05:02:06.552Z,5.80
2023-04-19T05:04:34.798Z,5.90
2023-04-19T05:07:03.043Z,6.00
2023-04-19T05:09:32.803Z,5.70
2023-04-19T05:12:01.752Z,6.00
2023-04-19T05:14:29.977Z,6.10
2023-04-19T05:16:58.161Z,6.10
2023-04-19T05:19:26.465Z,6.20
2023-04-19T05:21:54.658Z,6.20
2023-04-19T05:24:22.881Z,6.50
2023-04-19T05:26:52.451Z,6.30
2023-04-19T05:29:20.709Z,6.40
2023-04-19T05:31:49.005Z,6.30
2023-04-19T05:34:19.614Z,6.60
2023-04-19T05:36:49.553Z,6.30
2023-04-19T05:39:18.044Z,6.50
2023-04-19T05:41:46.772Z,6.60
2023-04-19T05:44:16.598Z,6.80
2023-04-19T05:46:45.099Z,6.70
2023-04-19T05:49:13.383Z,6.70
2023-04-19T05:51:41.638Z,6.60
2023-04-19T05:54:12.676Z,7.50
2023-04-19T05:56:41.061Z,7.00
2023-04-19T05:59:11.397Z,7.00
2023-04-19T06:01:40.971Z,6.90
2023-04-19T06:04:09.561Z,7.10
2023-04-19T06:06:38.630Z,7.30
2023-04-19T06:09:07.087Z,7.40
2023-04-19T06:11:47.149Z,7.30
2023-04-19T06:14:19.155Z,7.20
2023-04-19T06:16:49.068Z,7.20
2023-04-19T06:19:17.304Z,7.40
2023-04-19T06:21:46.013Z,7.80
2023-04-19T06:24:14.578Z,7.70
2023-04-19T06:26:43.833Z,7.80
2023-04-19T06:29:12.132Z,7.80
2023-04-19T06:31:40.340Z,7.80
2023-04-19T06:34:11.041Z,7.90
2023-04-19T06:36:39.299Z,8.10
2023-04-19T06:39:07.595Z,8.30
2023-04-19T06:41:35.848Z,8.50
2023-04-19T06:44:04.197Z,8.20
2023-04-19T06:46:32.936Z,8.50
2023-04-19T06:49:01.209Z,8.50
2023-04-19T06:51:30.951Z,8.60
2023-04-19T06:53:59.166Z,8.60
2023-04-19T06:56:45.768Z,8.60
2023-04-19T06:59:16.604Z,8.70
2023-04-19T07:01:45.662Z,8.80
2023-04-19T07:04:15.524Z,8.80
2023-04-19T07:06:45.498Z,9.20
2023-04-19T07:09:13.701Z,9.40
2023-04-19T07:11:42.186Z,9.90
2023-04-19T07:14:10.832Z,10.10
2023-04-19T07:16:39.008Z,10.00
2023-04-19T07:19:07.247Z,10.00
2023-04-19T07:21:35.641Z,9.90
2023-04-19T07:24:06.153Z,10.10
2023-04-19T07:26:34.895Z,10.30
2023-04-19T07:29:03.890Z,10.30
2023-04-19T07:31:32.133Z,10.30
2023-04-19T07:34:00.897Z,10.20
2023-04-19T07:36:29.050Z,10.50
2023-04-19T07:38:57.479Z,10.40
2023-04-19T07:41:27.374Z,10.70
2023-04-19T07:43:55.622Z,10.60
2023-04-19T07:46:23.933Z,10.30
2023-04-19T07:48:52.271Z,10.50
2023-04-19T07:51:20.641Z,10.70
2023-04-19T07:53:49.174Z,11.40
2023-04-19T07:56:17.418Z,11.30
2023-04-19T07:58:53.658Z,11.50
2023-04-19T08:01:32.727Z,11.70
2023-04-19T08:04:01.699Z,11.70
2023-04-19T08:06:30.739Z,11.60
2023-04-19T08:08:59.385Z,11.80
2023-04-19T08:11:27.600Z,11.80
2023-04-19T08:14:06.898Z,11.90
2023-04-19T08:19:11.275Z,11.50
2023-04-19T08:21:41.590Z,11.70
2023-04-19T08:24:10.372Z,11.60
2023-04-19T08:26:40.157Z,11.70
2023-04-19T08:29:09.802Z,12.10
2023-04-19T08:31:38.567Z,12.40
2023-04-19T08:34:06.938Z,12.40
2023-04-19T08:36:39.487Z,12.70
2023-04-19T08:39:18.019Z,13.00
2023-04-19T08:42:04.740Z,13.10
2023-04-19T08:44:43.334Z,13.40
2023-04-19T08:47:31.199Z,13.50
2023-04-19T08:52:47.918Z,13.10
2023-04-19T08:55:23.349Z,12.90
2023-04-19T08:57:51.768Z,13.00
2023-04-19T09:00:22.969Z,12.90
2023-04-19T09:02:55.096Z,12.90
2023-04-19T09:05:23.863Z,13.40
2023-04-19T09:07:52.722Z,13.80
2023-04-19T09:10:22.519Z,14.00
2023-04-19T09:13:04.894Z,14.10
2023-04-19T09:15:44.641Z,13.80
2023-04-19T09:18:14.484Z,13.70
2023-04-19T09:20:45.702Z,13.60
2023-04-19T09:23:16.305Z,13.50
2023-04-19T09:26:19.512Z,13.60
2023-04-19T09:28:58.278Z,13.90
2023-04-19T09:31:47.939Z,14.50
2023-04-19T09:34:21.585Z,14.60
2023-04-19T09:37:00.641Z,15.60
2023-04-19T09:39:36.034Z,16.10
2023-04-19T09:42:04.349Z,15.80
2023-04-19T09:45:02.149Z,15.80
2023-04-19T09:47:27.016Z,15.60
2023-04-19T09:50:22.032Z,15.30
2023-04-19T09:52:53.666Z,15.50
2023-04-19T09:55:27.861Z,15.90
2023-04-19T09:57:57.360Z,16.50
2023-04-19T10:00:28.343Z,16.50
2023-04-19T10:03:01.358Z,16.70
2023-04-19T10:05:30.063Z,17.00
2023-04-19T10:08:00.292Z,17.50
2023-04-19T10:18:12.185Z,17.90
2023-04-19T10:20:50.662Z,17.80
2023-04-19T10:23:20.402Z,17.90
2023-04-19T10:25:49.496Z,18.40
2023-04-19T10:28:17.856Z,18.60
2023-04-19T10:31:04.905Z,19.40
2023-04-19T10:33:38.361Z,19.00
2023-04-19T10:41:24.760Z,18.80
2023-04-19T10:44:12.621Z,18.70
2023-04-19T10:46:41.725Z,19.00
2023-04-19T10:49:13.413Z,18.10
2023-04-19T10:51:48.699Z,17.60
2023-04-19T10:54:31.481Z,17.70
2023-04-19T10:57:06.248Z,17.40
2023-04-19T10:59:36.533Z,17.40
2023-04-19T11:02:28.264Z,17.90
2023-04-19T11:05:04.066Z,18.70
2023-04-19T11:07:47.083Z,18.60
2023-04-19T11:10:28.507Z,19.00
2023-04-19T11:12:58.488Z,18.90
2023-04-19T11:15:26.944Z,19.10
2023-04-19T11:18:11.404Z,19.30
2023-04-19T11:20:44.569Z,19.80
2023-04-19T11:23:17.934Z,20.50
2023-04-19T11:25:48.559Z,19.80
2023-04-19T11:28:21.523Z,20.50
2023-04-19T11:30:52.395Z,20.60
2023-04-19T11:33:25.659Z,20.60
2023-04-19T11:35:55.378Z,20.70
2023-04-19T11:38:28.688Z,20.20
2023-04-19T11:41:02.019Z,20.10
2023-04-19T11:43:37.315Z,18.40
2023-04-19T11:46:12.475Z,18.00
2023-04-19T11:48:51.113Z,17.70
2023-04-19T11:51:23.742Z,17.60
2023-04-19T11:53:53.308Z,16.90
2023-04-19T11:56:23.808Z,16.60
2023-04-19T11:58:58.920Z,16.60
2023-04-19T12:01:31.112Z,17.00
2023-04-19T12:04:01.274Z,18.20
2023-04-19T12:06:32.503Z,18.40
2023-04-19T12:09:01.659Z,19.10
2023-04-19T12:11:47.199Z,18.80
2023-04-19T12:14:21.479Z,18.60
2023-04-19T12:17:06.556Z,19.10
2023-04-19T12:19:38.898Z,19.70
2023-04-19T12:22:14.048Z,18.90
2023-04-19T12:24:44.069Z,18.40
2023-04-19T12:27:12.352Z,17.90
2023-04-19T12:29:41.614Z,17.80
2023-04-19T12:32:12.965Z,18.70
2023-04-19T12:34:41.822Z,18.90
2023-04-19T12:37:11.512Z,19.30
2023-04-19T12:39:40.589Z,19.00
2023-04-19T12:42:10.216Z,19.20
2023-04-19T12:44:39.600Z,19.80
2023-04-19T12:47:07.975Z,19.50
2023-04-19T12:49:38.276Z,20.00
2023-04-19T12:52:08.132Z,19.70
2023-04-19T12:54:38.951Z,19.80
2023-04-19T12:57:09.261Z,19.50
2023-04-19T12:59:40.484Z,19.20
2023-04-19T13:02:08.933Z,18.40
2023-04-19T13:04:37.945Z,18.10
2023-04-19T13:07:06.230Z,17.70
2023-04-19T13:09:34.465Z,18.70
2023-04-19T13:12:05.919Z,18.00
2023-04-19T13:14:34.194Z,17.90
2023-04-19T13:17:02.439Z,18.20
2023-04-19T13:19:31.065Z,18.50
2023-04-19T13:22:01.534Z,18.70
2023-04-19T13:24:30.533Z,18.10
2023-04-19T13:26:59.582Z,17.40
2023-04-19T13:29:29.903Z,17.20
2023-04-19T13:31:58.119Z,17.10
2023-04-19T13:34:26.328Z,16.90
2023-04-19T13:36:54.493Z,16.20
2023-04-19T13:39:22.724Z,15.70
2023-04-19T13:41:52.572Z,15.70
2023-04-19T13:44:22.050Z,15.80
2023-04-19T13:46:53.733Z,16.00
2023-04-19T13:49:22.247Z,15.40
2023-04-19T13:51:51.166Z,15.00
2023-04-19T13:54:21.607Z,14.90
2023-04-19T13:56:52.240Z,14.70
2023-04-19T13:59:21.722Z,14.80
2023-04-19T14:01:51.603Z,14.30
2023-04-19T14:04:20.590Z,13.70
2023-04-19T14:06:50.380Z,13.70
2023-04-19T14:09:18.915Z,13.70
2023-04-19T14:11:48.798Z,14.10
2023-04-19T14:14:18.841Z,14.30
2023-04-19T14:16:47.490Z,13.80
2023-04-19T14:19:17.316Z,14.00
2023-04-19T14:21:45.844Z,14.40
2023-04-19T14:24:14.539Z,14.20
2023-04-19T14:26:43.493Z,14.50
2023-04-19T14:29:12.019Z,14.30
2023-04-19T14:31:40.550Z,14.30
2023-04-19T14:34:10.311Z,14.50
2023-04-19T14:36:40.216Z,14.60
2023-04-19T14:39:09.249Z,14.50
2023-04-19T14:41:37.717Z,14.60
2023-04-19T14:44:06.389Z,13.90
2023-04-19T14:46:34.836Z,14.30
2023-04-19T14:49:05.924Z,13.40
2023-04-19T14:51:34.628Z,14.10
2023-04-19T14:54:04.602Z,14.30
2023-04-19T14:56:33.194Z,13.40
2023-04-19T14:59:01.954Z,13.60
2023-04-19T15:01:30.489Z,13.40
2023-04-19T15:03:59.336Z,13.10
2023-04-19T15:06:28.077Z,13.00
2023-04-19T15:08:56.726Z,12.30
2023-04-19T15:11:26.607Z,12.20
2023-04-19T15:13:55.467Z,12.00
2023-04-19T15:16:24.594Z,11.90
2023-04-19T15:18:53.673Z,11.70
2023-04-19T15:21:24.679Z,11.10
2023-04-19T15:23:53.419Z,11.20
2023-04-19T15:26:24.592Z,10.80
2023-04-19T15:28:55.817Z,10.60
2023-04-19T15:31:26.014Z,10.00
2023-04-19T15:33:54.588Z,9.60
2023-04-19T15:36:23.094Z,9.50
2023-04-19T15:38:51.850Z,9.50
2023-04-19T15:41:20.420Z,9.10
2023-04-19T15:43:48.974Z,8.70
2023-04-19T15:46:19.589Z,8.90
2023-04-19T15:48:48.589Z,8.50
2023-04-19T15:51:17.281Z,8.30
2023-04-19T15:53:45.828Z,8.40
2023-04-19T15:56:14.654Z,8.60
2023-04-19T15:58:43.396Z,8.60
2023-04-19T16:01:13.558Z,8.30
2023-04-19T16:03:43.716Z,8.00
2023-04-19T16:06:12.406Z,8.30
2023-04-19T16:08:40.908Z,8.20
2023-04-19T16:11:09.741Z,8.40
2023-04-19T16:13:38.273Z,8.50
2023-04-19T16:16:07.444Z,8.80
2023-04-19T16:18:35.987Z,8.50
2023-04-19T16:21:06.399Z,8.20
2023-04-19T16:23:34.900Z,8.20
2023-04-19T16:26:03.476Z,8.30
2023-04-19T16:28:32.002Z,8.60
2023-04-19T16:31:00.532Z,9.00
2023-04-19T16:33:29.115Z,8.80
2023-04-19T16:35:57.707Z,8.90
2023-04-19T16:38:27.637Z,8.60
2023-04-19T16:40:56.154Z,9.10
2023-04-19T16:43:24.603Z,9.20
2023-04-19T16:45:53.297Z,9.40
2023-04-19T16:48:21.874Z,9.30
2023-04-19T16:50:50.894Z,9.40
2023-04-19T16:53:19.528Z,9.30
2023-04-19T16:55:49.420Z,8.70
2023-04-19T16:58:17.892Z,8.80
2023-04-19T17:00:46.685Z,8.80
2023-04-19T17:03:15.400Z,9.00
2023-04-19T17:05:44.082Z,8.80
2023-04-19T17:08:12.589Z,8.70
2023-04-19T17:10:41.171Z,8.70
2023-04-19T17:13:11.058Z,8.90
2023-04-19T17:15:39.949Z,8.90
2023-04-19T17:18:08.605Z,8.70
2023-04-19T17:20:37.260Z,8.70
2023-04-19T17:23:05.865Z,8.90
2023-04-19T17:25:34.709Z,8.70
2023-04-19T17:28:04.691Z,8.40
2023-04-19T17:30:34.735Z,8.80
2023-04-19T17:33:03.251Z,8.60
2023-04-19T17:35:32.736Z,8.50
2023-04-19T17:38:01.270Z,8.90
2023-04-19T17:40:29.953Z,8.40
2023-04-19T17:42:58.735Z,8.90
2023-04-19T17:45:27.201Z,8.10
2023-04-19T17:47:57.124Z,8.40
2023-04-19T17:50:26.785Z,8.90
2023-04-19T17:52:55.725Z,9.10
2023-04-19T17:55:25.588Z,9.30
2023-04-19T17:57:54.197Z,9.30
2023-04-19T18:00:23.016Z,9.10
2023-04-19T18:02:51.670Z,8.80
2023-04-19T18:05:21.825Z,8.80
2023-04-19T18:07:50.393Z,8.70
2023-04-19T18:10:18.968Z,9.00
2023-04-19T18:12:47.484Z,9.30
2023-04-19T18:15:15.978Z,9.30
2023-04-19T18:17:44.573Z,9.00
2023-04-19T18:20:14.168Z,9.10
2023-04-19T18:22:44.275Z,9.20
2023-04-19T18:25:12.860Z,8.60
2023-04-19T18:27:42.168Z,8.80
2023-04-19T18:30:11.653Z,8.90
2023-04-19T18:32:40.356Z,8.70
2023-04-19T18:35:10.062Z,9.20
2023-04-19T18:37:38.978Z,8.60
2023-04-19T18:40:10.471Z,8.80
2023-04-19T18:42:38.989Z,8.50
2023-04-19T18:45:08.912Z,8.60
2023-04-19T18:47:37.591Z,8.50
2023-04-19T18:50:08.458Z,8.80
2023-04-19T18:52:37.780Z,9.10
2023-04-19T18:55:08.503Z,8.80
2023-04-19T18:57:38.835Z,8.80
2023-04-19T19:00:10.960Z,9.10
2023-04-19T19:02:41.388Z,8.70
2023-04-19T19:05:13.865Z,8.70
2023-04-19T19:07:43.106Z,8.30
2023-04-19T19:12:44.816Z,9.00
2023-04-19T19:15:14.520Z,9.40
2023-04-19T19:17:43.637Z,9.20
2023-04-19T19:20:12.845Z,9.00
2023-04-19T19:22:41.809Z,8.90
2023-04-19T19:25:12.743Z,9.20
2023-04-19T19:27:47.435Z,9.50
2023-04-19T19:30:33.728Z,8.80
2023-04-19T19:33:02.660Z,9.10
2023-04-19T19:35:31.357Z,9.10
2023-04-19T19:37:59.950Z,9.40
2023-04-19T19:40:32.538Z,9.30
2023-04-19T19:43:01.874Z,9.20
2023-04-19T19:45:30.828Z,9.50
2023-04-19T19:48:00.738Z,9.50
2023-04-19T19:53:02.175Z,9.90
2023-04-19T19:55:32.288Z,9.70
2023-04-19T19:58:29.159Z,10.10
2023-04-19T20:03:32.621Z,9.20
2023-04-19T20:08:42.448Z,9.90
2023-04-19T20:11:14.024Z,9.40
2023-04-19T20:13:42.607Z,9.60
2023-04-19T20:16:11.155Z,9.70
2023-04-19T20:18:42.445Z,9.60
2023-04-19T20:21:11.041Z,9.90
2023-04-19T20:23:40.436Z,10.20
2023-04-19T20:26:08.985Z,10.20
2023-04-19T20:28:38.804Z,10.10
2023-04-19T20:31:07.316Z,10.10
2023-04-19T20:33:35.843Z,10.00
2023-04-19T20:36:04.498Z,9.90
2023-04-19T20:38:34.847Z,9.70
2023-04-19T20:41:03.386Z,9.70
2023-04-19T20:43:32.408Z,9.40
2023-04-19T20:46:02.653Z,9.40
2023-04-19T20:48:31.278Z,9.50
2023-04-19T20:50:59.832Z,9.60
2023-04-19T20:53:28.857Z,9.10
2023-04-19T20:55:57.336Z,9.60
2023-04-19T20:58:25.856Z,9.60
